Bailey Island, Maine
Current Conditions -  °F | °C
As of 7:51 PM on Friday 28 Nov 2014 (Local Time) from KPWM Reporting Station
Scattered Clouds Scattered Clouds  
Wind Chill: 24°   Ceiling: Unl
Heat Index: 29°   Visibility: 10mi
Dew Point: 17°   Wind: 5mph
Humidity: 61%   Direction: 320°NW
Pressure: 30.13"   Gusts: NA
Location:  43.73°N, 70°W
Report Text: KPWM 290051Z 32004KT 10SM SCT040 M02/M08 A3013 RMK AO2 SLP205 T10171083
Loading
Personal Weather Stations






























Interactive Weather Map New forecast layout! Learn more

10-Day Weather Forecast

Advertisements
Track Severe Weather on mobile